createdAt,value
2023-05-20T00:00:12.490Z,4.68
2023-05-20T00:02:40.613Z,5.15
2023-05-20T00:05:09.986Z,6.28
2023-05-20T00:07:39.820Z,5.38
2023-05-20T00:10:08.936Z,7.05
2023-05-20T00:12:36.956Z,3.83
2023-05-20T00:15:07.659Z,4.40
2023-05-20T00:17:41.061Z,6.43
2023-05-20T00:20:10.310Z,4.47
2023-05-20T00:22:38.789Z,5.80
2023-05-20T00:25:07.222Z,6.80
2023-05-20T00:27:41.291Z,6.57
2023-05-20T00:30:12.378Z,5.95
2023-05-20T00:32:41.087Z,5.05
2023-05-20T00:35:13.155Z,4.47
2023-05-20T00:37:41.087Z,6.07
2023-05-20T00:40:11.249Z,4.90
2023-05-20T00:42:41.068Z,5.85
2023-05-20T00:45:11.925Z,6.22
2023-05-20T00:47:41.547Z,7.95
2023-05-20T00:50:11.464Z,7.93
2023-05-20T00:52:41.601Z,6.75
2023-05-20T00:55:10.624Z,6.35
2023-05-20T00:57:38.678Z,5.53
2023-05-20T01:00:09.201Z,6.40
2023-05-20T01:02:40.006Z,7.25
2023-05-20T01:05:09.843Z,6.68
2023-05-20T01:07:40.343Z,9.15
2023-05-20T01:10:11.626Z,4.63
2023-05-20T01:12:44.253Z,8.02
2023-05-20T01:15:16.464Z,5.57
2023-05-20T01:17:48.058Z,6.47
2023-05-20T01:20:17.645Z,7.00
2023-05-20T01:22:54.516Z,4.88
2023-05-20T01:25:23.042Z,4.88
2023-05-20T01:27:52.811Z,4.72
2023-05-20T01:30:22.152Z,6.22
2023-05-20T01:32:52.912Z,7.70
2023-05-20T01:35:23.269Z,7.25
2023-05-20T01:37:54.511Z,6.25
2023-05-20T01:40:23.342Z,7.60
2023-05-20T01:42:55.411Z,5.80
2023-05-20T01:45:26.814Z,7.57
2023-05-20T01:47:55.064Z,6.43
2023-05-20T01:50:23.393Z,6.72
2023-05-20T01:52:52.897Z,5.82
2023-05-20T01:55:20.918Z,4.88
2023-05-20T01:57:49.713Z,5.30
2023-05-20T02:00:20.064Z,6.50
2023-05-20T02:02:48.603Z,5.07
2023-05-20T02:05:17.489Z,9.65
2023-05-20T02:07:50.841Z,7.60
2023-05-20T02:10:23.581Z,8.07
2023-05-20T02:12:54.373Z,6.22
2023-05-20T02:15:22.611Z,9.00
2023-05-20T02:17:51.859Z,8.65
2023-05-20T02:20:20.073Z,8.10
2023-05-20T02:22:48.759Z,16.25
2023-05-20T02:25:16.832Z,10.52
2023-05-20T02:27:46.229Z,11.35
2023-05-20T02:30:15.546Z,8.50
2023-05-20T02:32:43.631Z,6.30
2023-05-20T02:35:13.032Z,7.18
2023-05-20T02:37:41.111Z,6.35
2023-05-20T02:40:10.643Z,8.02
2023-05-20T02:42:39.293Z,6.65
2023-05-20T02:45:14.554Z,9.43
2023-05-20T02:47:42.621Z,6.43
2023-05-20T02:50:11.703Z,6.75
2023-05-20T02:52:42.283Z,6.88
2023-05-20T02:55:10.728Z,8.00
2023-05-20T02:57:39.140Z,10.40
2023-05-20T03:00:12.014Z,9.07
2023-05-20T03:02:40.239Z,6.68
2023-05-20T03:05:09.028Z,7.63
2023-05-20T03:07:40.070Z,6.00
2023-05-20T03:10:10.723Z,7.28
2023-05-20T03:12:39.125Z,6.80
2023-05-20T03:15:09.852Z,6.28
2023-05-20T03:17:37.788Z,7.45
2023-05-20T03:20:07.638Z,5.53
2023-05-20T03:22:36.208Z,7.28
2023-05-20T03:25:05.478Z,6.50
2023-05-20T03:27:34.387Z,5.90
2023-05-20T03:30:02.402Z,11.93
2023-05-20T03:32:31.882Z,5.70
2023-05-20T03:35:01.213Z,8.05
2023-05-20T03:37:29.667Z,6.20
2023-05-20T03:39:58.866Z,5.65
2023-05-20T03:42:26.924Z,8.00
2023-05-20T03:44:55.134Z,8.25
2023-05-20T03:47:23.104Z,6.50
2023-05-20T03:49:53.829Z,6.93
2023-05-20T03:52:22.440Z,7.30
2023-05-20T03:54:50.909Z,6.38
2023-05-20T03:57:19.765Z,5.03
2023-05-20T03:59:47.985Z,5.82
2023-05-20T04:02:16.983Z,6.38
2023-05-20T04:04:45.084Z,7.88
2023-05-20T04:07:14.633Z,8.23
2023-05-20T04:09:43.268Z,7.50
2023-05-20T04:12:11.337Z,7.28
2023-05-20T04:14:42.168Z,7.15
2023-05-20T04:17:11.553Z,7.35
2023-05-20T04:19:41.106Z,6.50
2023-05-20T04:22:09.039Z,5.78
2023-05-20T04:24:38.503Z,6.07
2023-05-20T04:27:09.891Z,7.20
2023-05-20T04:29:37.994Z,6.05
2023-05-20T04:32:07.611Z,7.10
2023-05-20T04:34:37.400Z,8.25
2023-05-20T04:37:07.753Z,9.18
2023-05-20T04:39:36.424Z,5.78
2023-05-20T04:42:06.614Z,9.57
2023-05-20T04:44:35.640Z,6.70
2023-05-20T04:47:04.499Z,7.07
2023-05-20T04:49:32.882Z,7.03
2023-05-20T04:52:04.833Z,7.43
2023-05-20T04:54:35.028Z,7.13
2023-05-20T04:57:03.211Z,6.65
2023-05-20T04:59:32.782Z,7.45
2023-05-20T05:02:01.338Z,7.28
2023-05-20T05:04:29.607Z,6.45
2023-05-20T05:06:57.711Z,7.88
2023-05-20T05:09:33.117Z,7.50
2023-05-20T05:12:02.851Z,6.43
2023-05-20T05:14:32.845Z,8.48
2023-05-20T05:17:01.014Z,6.95
2023-05-20T05:19:29.281Z,8.77
2023-05-20T05:21:57.706Z,6.88
2023-05-20T05:24:26.729Z,7.38
2023-05-20T05:26:58.783Z,7.50
2023-05-20T05:29:27.090Z,6.95
2023-05-20T05:31:56.716Z,5.50
2023-05-20T05:34:28.455Z,8.43
2023-05-20T05:36:56.557Z,6.72
2023-05-20T05:39:24.918Z,8.07
2023-05-20T05:41:54.146Z,6.10
2023-05-20T05:44:22.231Z,6.35
2023-05-20T05:46:50.540Z,6.45
2023-05-20T05:49:20.359Z,7.55
2023-05-20T05:51:48.539Z,7.50
2023-05-20T05:54:16.929Z,6.68
2023-05-20T05:56:45.952Z,6.35
2023-05-20T05:59:15.020Z,7.28
2023-05-20T06:01:43.545Z,7.80
2023-05-20T06:04:11.703Z,8.00
2023-05-20T06:06:42.395Z,7.95
2023-05-20T06:09:13.257Z,7.70
2023-05-20T06:11:42.616Z,8.48
2023-05-20T06:14:12.460Z,7.32
2023-05-20T06:16:40.494Z,7.55
2023-05-20T06:19:09.403Z,9.43
2023-05-20T06:21:40.256Z,7.65
2023-05-20T06:24:08.535Z,9.38
2023-05-20T06:26:36.511Z,8.65
2023-05-20T06:29:04.807Z,7.40
2023-05-20T06:31:33.657Z,8.00
2023-05-20T06:34:01.762Z,7.97
2023-05-20T06:36:31.253Z,6.57
2023-05-20T06:39:03.596Z,7.57
2023-05-20T06:41:31.634Z,8.82
2023-05-20T06:44:00.154Z,8.30
2023-05-20T06:46:28.684Z,8.25
2023-05-20T06:48:57.286Z,6.35
2023-05-20T06:51:25.660Z,9.05
2023-05-20T06:53:53.693Z,6.68
2023-05-20T06:56:25.704Z,7.78
2023-05-20T06:58:57.834Z,7.38
2023-05-20T07:01:27.526Z,8.37
2023-05-20T07:03:55.550Z,8.60
2023-05-20T07:06:23.958Z,7.30
2023-05-20T07:08:52.081Z,7.93
2023-05-20T07:11:20.049Z,6.40
2023-05-20T07:13:49.626Z,7.30
2023-05-20T07:16:17.825Z,9.15
2023-05-20T07:18:46.008Z,8.27
2023-05-20T07:21:13.955Z,7.03
2023-05-20T07:23:41.967Z,7.40
2023-05-20T07:26:09.987Z,8.57
2023-05-20T07:28:40.052Z,10.98
2023-05-20T07:31:09.444Z,7.43
2023-05-20T07:33:37.546Z,7.53
2023-05-20T07:36:05.932Z,8.55
2023-05-20T07:38:34.524Z,8.25
2023-05-20T07:41:02.729Z,7.18
2023-05-20T07:43:30.807Z,9.57
2023-05-20T07:45:58.957Z,9.02
2023-05-20T07:48:28.249Z,9.27
2023-05-20T07:50:57.327Z,8.63
2023-05-20T07:53:25.370Z,6.55
2023-05-20T07:55:53.325Z,9.10
2023-05-20T07:58:24.536Z,9.27
2023-05-20T08:00:52.677Z,6.88
2023-05-20T08:03:22.333Z,6.57
2023-05-20T08:05:52.115Z,8.52
2023-05-20T08:08:20.004Z,8.38
2023-05-20T08:10:48.192Z,7.18
2023-05-20T08:13:16.406Z,18.08
2023-05-20T08:15:44.657Z,7.50
2023-05-20T08:18:12.614Z,8.05
2023-05-20T08:20:42.393Z,6.82
2023-05-20T08:23:11.692Z,7.38
2023-05-20T08:25:39.704Z,7.95
2023-05-20T08:28:07.693Z,7.82
2023-05-20T08:30:35.814Z,7.70
2023-05-20T08:33:04.564Z,8.68
2023-05-20T08:35:32.853Z,7.32
2023-05-20T08:38:04.473Z,8.00
2023-05-20T08:40:36.146Z,7.47
2023-05-20T08:43:05.738Z,7.28
2023-05-20T08:45:35.768Z,7.82
2023-05-20T08:48:08.871Z,6.25
2023-05-20T08:50:38.758Z,7.90
2023-05-20T08:53:06.826Z,8.07
2023-05-20T08:55:39.365Z,8.98
2023-05-20T08:58:07.464Z,7.85
2023-05-20T09:00:35.815Z,8.60
2023-05-20T09:03:04.330Z,7.40
2023-05-20T09:05:32.874Z,7.45
2023-05-20T09:08:08.437Z,8.70
2023-05-20T09:10:39.182Z,8.85
2023-05-20T09:13:08.552Z,7.60
2023-05-20T09:15:37.794Z,8.60
2023-05-20T09:18:07.618Z,8.00
2023-05-20T09:20:37.365Z,7.43
2023-05-20T09:23:07.224Z,7.38
2023-05-20T09:25:37.579Z,7.55
2023-05-20T09:28:11.829Z,6.93
2023-05-20T09:30:40.133Z,7.82
2023-05-20T09:33:09.484Z,9.30
2023-05-20T09:35:42.783Z,10.75
2023-05-20T09:38:13.928Z,7.63
2023-05-20T09:40:45.432Z,7.68
2023-05-20T09:43:13.672Z,7.85
2023-05-20T09:45:42.886Z,8.23
2023-05-20T09:48:13.081Z,9.07
2023-05-20T09:50:42.751Z,8.00
2023-05-20T09:53:12.352Z,8.30
2023-05-20T09:55:41.161Z,8.15
2023-05-20T09:58:16.408Z,7.93
2023-05-20T10:00:45.545Z,11.80
2023-05-20T10:03:16.286Z,8.50
2023-05-20T10:05:58.051Z,9.38
2023-05-20T10:08:59.581Z,7.47
2023-05-20T10:11:36.061Z,8.20
2023-05-20T10:14:22.682Z,9.57
2023-05-20T10:16:57.637Z,5.63
2023-05-20T10:19:31.050Z,7.05
2023-05-20T10:22:02.156Z,7.53
2023-05-20T10:24:36.641Z,8.85
2023-05-20T10:27:10.587Z,7.15
2023-05-20T10:32:28.489Z,7.60
2023-05-20T10:35:01.614Z,6.15
2023-05-20T10:37:31.833Z,9.20
2023-05-20T10:40:09.583Z,10.45
2023-05-20T10:42:37.548Z,8.05
2023-05-20T10:45:08.404Z,5.72
2023-05-20T10:47:37.261Z,7.22
2023-05-20T10:50:06.101Z,7.78
2023-05-20T10:52:35.692Z,9.10
2023-05-20T10:55:05.206Z,6.63
2023-05-20T10:57:34.096Z,8.85
2023-05-20T11:00:02.221Z,6.88
2023-05-20T11:02:32.001Z,5.97
2023-05-20T11:05:00.714Z,6.45
2023-05-20T11:07:30.291Z,7.53
2023-05-20T11:09:58.523Z,6.72
2023-05-20T11:12:27.618Z,8.18
2023-05-20T11:14:56.193Z,16.55
2023-05-20T11:17:24.090Z,6.72
2023-05-20T11:19:53.482Z,11.30
2023-05-20T11:22:21.879Z,6.90
2023-05-20T11:24:52.928Z,7.05
2023-05-20T11:27:21.571Z,7.68
2023-05-20T11:29:51.803Z,17.75
2023-05-20T11:32:21.295Z,7.25
2023-05-20T11:34:54.539Z,6.53
2023-05-20T11:37:23.267Z,9.65
2023-05-20T11:40:07.646Z,9.93
2023-05-20T11:42:36.688Z,8.10
2023-05-20T11:45:05.234Z,15.25
2023-05-20T11:47:33.402Z,7.70
2023-05-20T11:50:04.876Z,7.22
2023-05-20T11:52:35.276Z,11.00
2023-05-20T11:55:04.136Z,7.10
2023-05-20T11:57:32.720Z,7.13
2023-05-20T12:00:00.851Z,7.78
2023-05-20T12:02:29.373Z,7.70
2023-05-20T12:04:58.361Z,8.63
2023-05-20T12:07:28.550Z,7.22
2023-05-20T12:09:57.762Z,7.57
2023-05-20T12:12:29.278Z,6.47
2023-05-20T12:14:57.256Z,6.35
2023-05-20T12:17:25.443Z,6.35
2023-05-20T12:19:53.734Z,10.13
2023-05-20T12:22:22.166Z,7.38
2023-05-20T12:24:52.702Z,6.90
2023-05-20T12:27:22.988Z,7.55
2023-05-20T12:29:51.173Z,7.72
2023-05-20T12:32:21.085Z,7.15
2023-05-20T12:34:53.073Z,7.88
2023-05-20T12:37:21.026Z,8.20
2023-05-20T12:39:48.965Z,8.02
2023-05-20T12:42:18.284Z,8.15
2023-05-20T12:44:46.552Z,7.55
2023-05-20T12:47:14.653Z,8.40
2023-05-20T12:49:43.107Z,6.47
2023-05-20T12:52:19.020Z,7.95
2023-05-20T12:54:50.325Z,6.40
2023-05-20T12:57:20.195Z,8.68
2023-05-20T12:59:48.232Z,9.55
2023-05-20T13:02:16.463Z,7.18
2023-05-20T13:04:44.632Z,7.13
2023-05-20T13:07:13.326Z,8.82
2023-05-20T13:09:41.315Z,6.60
2023-05-20T13:12:10.083Z,7.05
2023-05-20T13:14:39.420Z,6.80
2023-05-20T13:17:07.575Z,8.43
2023-05-20T13:19:36.196Z,8.55
2023-05-20T13:22:04.188Z,7.13
2023-05-20T13:24:32.439Z,7.68
2023-05-20T13:27:01.508Z,8.02
2023-05-20T13:29:29.555Z,11.02
2023-05-20T13:32:01.705Z,7.18
2023-05-20T13:34:30.670Z,6.53
2023-05-20T13:36:59.005Z,9.43
2023-05-20T13:39:27.156Z,7.55
2023-05-20T13:41:57.402Z,11.40
2023-05-20T13:44:26.532Z,6.68
2023-05-20T13:46:54.577Z,8.32
2023-05-20T13:49:25.766Z,7.15
2023-05-20T13:51:53.798Z,7.80
2023-05-20T13:54:22.595Z,8.70
2023-05-20T13:56:50.547Z,10.63
2023-05-20T13:59:22.946Z,6.13
2023-05-20T14:01:51.021Z,6.78
2023-05-20T14:04:19.665Z,7.38
2023-05-20T14:06:50.796Z,7.72
2023-05-20T14:09:19.196Z,6.85
2023-05-20T14:11:47.287Z,7.22
2023-05-20T14:14:15.440Z,7.00
2023-05-20T14:16:43.786Z,5.90
2023-05-20T14:19:11.752Z,6.43
2023-05-20T14:21:42.877Z,7.20
2023-05-20T14:24:12.443Z,6.18
2023-05-20T14:26:40.734Z,9.85
2023-05-20T14:29:09.175Z,6.50
2023-05-20T14:31:38.690Z,7.78
2023-05-20T14:34:06.989Z,8.18
2023-05-20T14:36:35.374Z,6.03
2023-05-20T14:39:03.376Z,6.53
2023-05-20T14:41:32.815Z,6.53
2023-05-20T14:44:01.164Z,8.45
2023-05-20T14:46:29.322Z,7.15
2023-05-20T14:48:57.590Z,8.15
2023-05-20T14:51:29.141Z,7.72
2023-05-20T14:53:57.138Z,6.38
2023-05-20T14:56:25.119Z,6.95
2023-05-20T14:58:54.460Z,7.75
2023-05-20T15:01:22.746Z,6.75
2023-05-20T15:03:50.928Z,7.78
2023-05-20T15:06:19.189Z,6.90
2023-05-20T15:08:47.631Z,6.32
2023-05-20T15:11:16.501Z,7.25
2023-05-20T15:13:48.443Z,7.47
2023-05-20T15:16:19.329Z,8.10
2023-05-20T15:18:47.768Z,7.90
2023-05-20T15:21:15.688Z,9.75
2023-05-20T15:23:44.084Z,7.53
2023-05-20T15:26:12.944Z,8.18
2023-05-20T15:28:41.969Z,7.80
2023-05-20T15:31:10.207Z,8.55
2023-05-20T15:33:40.322Z,9.30
2023-05-20T15:36:09.296Z,12.35
2023-05-20T15:38:37.504Z,8.27
2023-05-20T15:41:06.606Z,9.48
2023-05-20T15:43:34.939Z,10.85
2023-05-20T15:46:04.851Z,8.52
2023-05-20T15:48:34.702Z,7.82
2023-05-20T15:51:05.262Z,9.77
2023-05-20T15:53:33.519Z,8.35
2023-05-20T15:56:02.376Z,8.75
2023-05-20T15:58:30.584Z,11.63
2023-05-20T16:01:01.293Z,11.20
2023-05-20T16:03:29.789Z,11.02
2023-05-20T16:05:58.064Z,10.95
2023-05-20T16:08:29.365Z,10.45
2023-05-20T16:10:57.557Z,10.50
2023-05-20T16:13:25.681Z,13.15
2023-05-20T16:15:57.468Z,12.07
2023-05-20T16:18:26.035Z,11.15
2023-05-20T16:20:54.541Z,9.75
2023-05-20T16:23:22.596Z,11.77
2023-05-20T16:25:55.466Z,13.45
2023-05-20T16:30:55.651Z,11.75
2023-05-20T16:33:23.782Z,10.13
2023-05-20T16:35:52.059Z,10.65
2023-05-20T16:38:20.205Z,10.82
2023-05-20T16:40:48.558Z,11.27
2023-05-20T16:43:17.892Z,11.98
2023-05-20T16:45:47.462Z,11.82
2023-05-20T16:48:15.572Z,13.60
2023-05-20T16:50:43.729Z,12.95
2023-05-20T16:53:12.751Z,13.25
2023-05-20T16:55:42.003Z,11.77
2023-05-20T16:58:10.063Z,12.20
2023-05-20T17:00:39.912Z,14.02
2023-05-20T17:03:08.088Z,13.98
2023-05-20T17:05:36.417Z,15.63
2023-05-20T17:08:04.816Z,13.10
2023-05-20T17:10:32.851Z,13.02
2023-05-20T17:13:01.342Z,13.00
2023-05-20T17:15:32.826Z,13.27
2023-05-20T17:18:02.613Z,11.55
2023-05-20T17:20:30.549Z,14.10
2023-05-20T17:22:59.038Z,13.27
2023-05-20T17:25:27.011Z,13.40
2023-05-20T17:27:55.524Z,13.77
2023-05-20T17:30:23.628Z,14.48
2023-05-20T17:32:53.914Z,12.27
2023-05-20T17:35:25.771Z,13.70
2023-05-20T17:37:55.058Z,14.43
2023-05-20T17:40:26.429Z,14.30
2023-05-20T17:42:58.390Z,14.45
2023-05-20T17:45:26.653Z,14.02
2023-05-20T17:47:54.769Z,12.48
2023-05-20T17:50:24.721Z,16.52
2023-05-20T17:52:54.398Z,13.45
2023-05-20T17:55:24.853Z,14.93
2023-05-20T17:57:52.841Z,15.15
2023-05-20T18:00:21.472Z,15.38
2023-05-20T18:02:49.902Z,13.63
2023-05-20T18:05:18.636Z,13.98
2023-05-20T18:07:48.020Z,13.93
2023-05-20T18:10:15.985Z,15.35
2023-05-20T18:12:45.632Z,12.55
2023-05-20T18:15:14.467Z,14.10
2023-05-20T18:17:43.743Z,14.32
2023-05-20T18:20:13.374Z,15.05
2023-05-20T18:22:45.668Z,14.40
2023-05-20T18:25:18.448Z,20.40
2023-05-20T18:27:46.665Z,13.82
2023-05-20T18:30:14.657Z,16.70
2023-05-20T18:32:43.618Z,12.93
2023-05-20T18:35:14.608Z,15.93
2023-05-20T18:37:42.784Z,14.75
2023-05-20T18:40:11.440Z,13.48
2023-05-20T18:42:41.117Z,14.25
2023-05-20T18:45:10.113Z,19.67
2023-05-20T18:47:38.168Z,14.20
2023-05-20T18:50:08.394Z,15.48
2023-05-20T18:52:36.789Z,17.75
2023-05-20T18:55:05.037Z,14.68
2023-05-20T18:57:33.312Z,17.08
2023-05-20T19:00:04.687Z,13.88
2023-05-20T19:02:32.798Z,13.70
2023-05-20T19:05:03.162Z,15.88
2023-05-20T19:07:31.694Z,16.23
2023-05-20T19:10:00.046Z,17.27
2023-05-20T19:12:28.126Z,15.07
2023-05-20T19:14:56.452Z,16.20
2023-05-20T19:17:26.676Z,15.55
2023-05-20T19:19:54.675Z,16.73
2023-05-20T19:22:22.770Z,17.40
2023-05-20T19:24:51.344Z,18.02
2023-05-20T19:27:19.461Z,14.05
2023-05-20T19:29:47.437Z,16.23
2023-05-20T19:32:15.486Z,17.55
2023-05-20T19:34:44.810Z,16.13
2023-05-20T19:37:12.842Z,15.25
2023-05-20T19:39:40.842Z,16.85
2023-05-20T19:42:08.851Z,17.10
2023-05-20T19:44:37.103Z,16.08
2023-05-20T19:47:06.722Z,18.02
2023-05-20T19:49:35.087Z,16.08
2023-05-20T19:52:04.704Z,19.80
2023-05-20T19:54:32.697Z,17.80
2023-05-20T19:57:00.786Z,19.73
2023-05-20T19:59:28.877Z,17.30
2023-05-20T20:02:02.778Z,16.08
2023-05-20T20:04:30.962Z,18.10
2023-05-20T20:06:58.929Z,20.38
2023-05-20T20:09:33.225Z,17.08
2023-05-20T20:12:02.589Z,17.77
2023-05-20T20:14:30.974Z,18.52
2023-05-20T20:16:59.845Z,19.98
2023-05-20T20:19:31.730Z,19.08
2023-05-20T20:21:59.882Z,21.83
2023-05-20T20:24:29.326Z,20.58
2023-05-20T20:26:58.170Z,20.52
2023-05-20T20:29:27.205Z,18.75
2023-05-20T20:31:55.829Z,20.65
2023-05-20T20:34:24.707Z,21.80
2023-05-20T20:36:53.369Z,18.70
2023-05-20T20:39:22.818Z,21.20
2023-05-20T20:41:52.270Z,19.83
2023-05-20T20:44:22.470Z,23.35
2023-05-20T20:46:51.507Z,21.45
2023-05-20T20:49:19.869Z,20.25
2023-05-20T20:51:49.124Z,21.40
2023-05-20T20:54:21.318Z,23.15
2023-05-20T20:56:49.979Z,21.57
2023-05-20T20:59:22.034Z,19.50
2023-05-20T21:01:52.766Z,20.85
2023-05-20T21:04:21.049Z,22.08
2023-05-20T21:06:49.409Z,21.77
2023-05-20T21:09:18.493Z,24.35
2023-05-20T21:11:49.492Z,21.17
2023-05-20T21:14:22.816Z,22.75
2023-05-20T21:16:51.099Z,22.38
2023-05-20T21:19:19.387Z,23.67
2023-05-20T21:21:47.468Z,22.80
2023-05-20T21:24:15.609Z,21.92
2023-05-20T21:26:43.551Z,23.50
2023-05-20T21:29:12.387Z,23.10
2023-05-20T21:31:41.868Z,21.23
2023-05-20T21:34:09.954Z,24.58
2023-05-20T21:36:39.935Z,21.63
2023-05-20T21:39:08.236Z,24.27
2023-05-20T21:41:36.318Z,28.25
2023-05-20T21:44:04.572Z,22.98
2023-05-20T21:46:34.271Z,24.73
2023-05-20T21:49:04.177Z,25.48
2023-05-20T21:51:32.414Z,26.38
2023-05-20T21:54:00.459Z,28.58
2023-05-20T21:56:29.008Z,24.55
2023-05-20T21:58:56.971Z,28.42
2023-05-20T22:01:25.279Z,24.45
2023-05-20T22:03:53.741Z,29.08
2023-05-20T22:06:23.889Z,27.27
2023-05-20T22:08:52.401Z,24.00
2023-05-20T22:11:24.494Z,26.70
2023-05-20T22:13:53.562Z,22.23
2023-05-20T22:16:22.283Z,24.90
2023-05-20T22:18:53.927Z,27.15
2023-05-20T22:21:28.747Z,26.05
2023-05-20T22:23:57.028Z,26.67
2023-05-20T22:26:25.341Z,23.15
2023-05-20T22:28:55.375Z,25.63
2023-05-20T22:31:23.653Z,27.73
2023-05-20T22:33:52.577Z,26.75
2023-05-20T22:36:22.933Z,32.33
2023-05-20T22:38:52.614Z,30.02
2023-05-20T22:41:21.275Z,24.98
2023-05-20T22:43:50.557Z,24.55
2023-05-20T22:46:18.583Z,29.98
2023-05-20T22:48:48.280Z,26.73
2023-05-20T22:51:16.572Z,29.60
2023-05-20T22:53:45.613Z,26.80
2023-05-20T22:56:14.988Z,26.77
2023-05-20T22:58:43.841Z,27.30
2023-05-20T23:01:11.813Z,28.27
2023-05-20T23:03:44.239Z,29.92
2023-05-20T23:06:12.929Z,28.58
2023-05-20T23:08:42.889Z,27.88
2023-05-20T23:11:11.425Z,28.35
2023-05-20T23:13:41.074Z,29.33
2023-05-20T23:16:09.657Z,30.23
2023-05-20T23:18:37.682Z,30.20
2023-05-20T23:21:06.412Z,31.10
2023-05-20T23:23:34.341Z,28.23
2023-05-20T23:26:03.337Z,32.00
2023-05-20T23:28:32.036Z,27.50
2023-05-20T23:31:01.616Z,30.95
2023-05-20T23:33:30.643Z,30.77
2023-05-20T23:35:58.976Z,30.42
2023-05-20T23:38:27.534Z,31.48
2023-05-20T23:40:55.573Z,30.90
2023-05-20T23:43:26.880Z,30.33
2023-05-20T23:45:54.978Z,30.48
2023-05-20T23:48:26.474Z,28.98
2023-05-20T23:50:56.022Z,29.92
2023-05-20T23:53:25.432Z,28.67
2023-05-20T23:55:56.463Z,29.25
2023-05-20T23:58:24.564Z,27.65
